Melbourne, Florida
Current Conditions -  °F | °C
As of 8:24 PM on Tuesday 25 Nov 2014 (Local Time) from KMLB Reporting Station
Overcast Overcast  
Wind Chill: 76°   Ceiling: 2900
Heat Index: 76°   Visibility: 10mi
Dew Point: 73°   Wind: 6mph
Humidity: 91%   Direction: 180°S
Pressure: 29.94"   Gusts: NA
Location:  28.08°N, 80.61°W
Report Text: KMLB 260124Z 18005KT 10SM BKN029 BKN044 OVC050 24/23 A2994 RMK AO2 LTG DSNT N RAB0054E03 P0000 T02440228
Loading
Personal Weather Stations






























Interactive Weather Map New forecast layout! Learn more

10-Day Weather Forecast

Advertisements
Track Severe Weather on mobile